createdAt,value
2019-02-07T00:01:42.426Z,6.27
2019-02-07T00:04:09.950Z,6.22
2019-02-07T00:06:37.471Z,6.19
2019-02-07T00:09:08.361Z,6.21
2019-02-07T00:11:35.850Z,6.18
2019-02-07T00:14:03.790Z,6.22
2019-02-07T00:16:31.372Z,6.20
2019-02-07T00:18:58.806Z,6.16
2019-02-07T00:21:26.290Z,6.22
2019-02-07T00:23:53.705Z,6.20
2019-02-07T00:26:21.131Z,6.21
2019-02-07T00:28:48.525Z,6.19
2019-02-07T00:31:16.336Z,6.13
2019-02-07T00:33:43.826Z,6.15
2019-02-07T00:36:11.660Z,6.05
2019-02-07T00:38:39.151Z,6.13
2019-02-07T00:41:06.685Z,6.10
2019-02-07T00:43:34.104Z,6.06
2019-02-07T00:46:01.535Z,6.10
2019-02-07T00:48:29.285Z,6.01
2019-02-07T00:50:56.731Z,6.11
2019-02-07T00:53:24.265Z,6.08
2019-02-07T00:55:51.696Z,6.06
2019-02-07T00:58:19.132Z,6.04
2019-02-07T01:00:47.140Z,6.12
2019-02-07T01:03:14.748Z,6.13
2019-02-07T01:05:42.431Z,6.10
2019-02-07T01:08:10.015Z,6.11
2019-02-07T01:10:37.430Z,6.16
2019-02-07T01:13:05.010Z,6.11
2019-02-07T01:15:32.483Z,6.12
2019-02-07T01:18:00.010Z,6.07
2019-02-07T01:20:27.410Z,6.10
2019-02-07T01:22:55.586Z,6.09
2019-02-07T01:25:23.233Z,6.03
2019-02-07T01:27:51.225Z,5.99
2019-02-07T01:30:20.221Z,5.96
2019-02-07T01:32:47.664Z,5.96
2019-02-07T01:35:15.057Z,5.94
2019-02-07T01:37:42.710Z,5.86
2019-02-07T01:40:13.010Z,5.88
2019-02-07T01:42:40.485Z,5.85
2019-02-07T01:45:13.146Z,5.85
2019-02-07T01:47:39.236Z,5.78
2019-02-07T01:50:08.750Z,5.73
2019-02-07T01:52:36.348Z,5.73
2019-02-07T01:55:04.480Z,5.72
2019-02-07T01:57:31.972Z,5.68
2019-02-07T01:59:59.374Z,5.69
2019-02-07T02:02:26.791Z,5.65
2019-02-07T02:04:54.269Z,5.60
2019-02-07T02:07:21.765Z,5.58
2019-02-07T02:09:49.165Z,5.56
2019-02-07T02:12:16.716Z,5.54
2019-02-07T02:14:44.091Z,5.56
2019-02-07T02:17:11.524Z,5.54
2019-02-07T02:19:40.718Z,5.51
2019-02-07T02:22:08.287Z,5.49
2019-02-07T02:24:35.808Z,5.46
2019-02-07T02:27:03.321Z,5.48
2019-02-07T02:29:31.200Z,5.42
2019-02-07T02:31:58.636Z,5.41
2019-02-07T02:34:26.082Z,5.40
2019-02-07T02:36:53.665Z,5.41
2019-02-07T02:39:21.065Z,5.32
2019-02-07T02:41:48.439Z,5.41
2019-02-07T02:44:15.907Z,5.39
2019-02-07T02:46:43.309Z,5.35
2019-02-07T02:49:10.976Z,5.33
2019-02-07T02:51:38.381Z,5.34
2019-02-07T02:54:05.854Z,5.33
2019-02-07T02:56:33.316Z,5.28
2019-02-07T02:59:00.720Z,5.31
2019-02-07T03:02:02.581Z,5.32
2019-02-07T03:04:58.356Z,5.30
2019-02-07T03:07:47.190Z,5.30
2019-02-07T03:10:42.950Z,5.34
2019-02-07T03:13:30.245Z,5.32
2019-02-07T03:16:06.435Z,5.29
2019-02-07T03:19:05.193Z,5.30
2019-02-07T03:21:54.885Z,5.33
2019-02-07T03:24:44.751Z,5.33
2019-02-07T03:27:37.661Z,5.38
2019-02-07T03:30:24.852Z,5.43
2019-02-07T03:33:02.608Z,5.42
2019-02-07T03:36:01.780Z,5.44
2019-02-07T03:38:41.545Z,5.39
2019-02-07T03:41:21.340Z,5.29
2019-02-07T03:44:14.340Z,5.17
2019-02-07T03:46:53.754Z,5.12
2019-02-07T03:49:39.453Z,5.02
2019-02-07T03:52:24.750Z,5.01
2019-02-07T03:55:10.349Z,4.92
2019-02-07T03:58:09.566Z,4.88
2019-02-07T04:00:52.996Z,4.86
2019-02-07T04:03:33.728Z,4.81
2019-02-07T04:06:21.066Z,4.81
2019-02-07T04:09:26.010Z,4.86
2019-02-07T04:12:22.790Z,4.84
2019-02-07T04:15:14.066Z,4.86
2019-02-07T04:18:01.085Z,4.86
2019-02-07T04:20:40.953Z,4.84
2019-02-07T04:23:27.890Z,4.86
2019-02-07T04:26:25.927Z,4.81
2019-02-07T04:29:11.451Z,4.80
2019-02-07T04:31:58.409Z,4.88
2019-02-07T04:35:00.340Z,4.92
2019-02-07T04:37:45.868Z,4.92
2019-02-07T04:40:41.632Z,5.05
2019-02-07T04:43:31.109Z,5.15
2019-02-07T04:46:26.607Z,5.18
2019-02-07T04:49:06.306Z,5.19
2019-02-07T04:52:02.505Z,5.21
2019-02-07T04:54:40.330Z,5.22
2019-02-07T04:57:27.226Z,5.37
2019-02-07T05:00:14.624Z,5.41
2019-02-07T05:02:51.585Z,5.40
2019-02-07T05:05:32.926Z,5.46
2019-02-07T05:08:20.129Z,5.57
2019-02-07T05:11:16.185Z,5.57
2019-02-07T05:14:12.259Z,5.64
2019-02-07T05:16:59.233Z,5.74
2019-02-07T05:19:52.222Z,5.81
2019-02-07T05:22:37.936Z,5.85
2019-02-07T05:25:28.661Z,5.83
2019-02-07T05:28:21.531Z,5.83
2019-02-07T05:31:23.389Z,5.92
2019-02-07T05:33:57.751Z,5.88
2019-02-07T05:36:47.205Z,5.85
2019-02-07T05:39:32.795Z,5.77
2019-02-07T05:42:12.213Z,5.72
2019-02-07T05:44:59.168Z,5.61
2019-02-07T05:47:46.170Z,5.65
2019-02-07T05:50:31.939Z,5.64
2019-02-07T05:53:18.892Z,5.63
2019-02-07T05:56:18.031Z,5.65
2019-02-07T05:59:03.345Z,5.62
2019-02-07T06:01:54.971Z,5.55
2019-02-07T06:04:57.021Z,5.55
2019-02-07T06:07:56.082Z,5.57
2019-02-07T06:10:43.001Z,5.64
2019-02-07T06:13:35.752Z,5.58
2019-02-07T06:16:40.886Z,5.65
2019-02-07T06:19:27.810Z,5.73
2019-02-07T06:22:13.710Z,5.80
2019-02-07T06:24:59.192Z,5.78
2019-02-07T06:28:04.290Z,5.75
2019-02-07T06:30:54.160Z,5.68
2019-02-07T06:33:39.951Z,5.56
2019-02-07T06:36:26.901Z,5.48
2019-02-07T06:39:12.721Z,5.42
2019-02-07T06:42:02.606Z,5.33
2019-02-07T06:45:06.228Z,5.25
2019-02-07T06:48:05.458Z,5.18
2019-02-07T06:50:52.400Z,5.16
2019-02-07T06:53:57.535Z,5.20
2019-02-07T06:56:58.279Z,5.15
2019-02-07T06:59:45.553Z,5.16
2019-02-07T07:02:35.563Z,5.15
2019-02-07T07:05:22.565Z,4.98
2019-02-07T07:08:08.180Z,4.85
2019-02-07T07:11:01.540Z,4.97
2019-02-07T07:13:51.555Z,5.12
2019-02-07T07:16:44.526Z,5.25
2019-02-07T07:19:40.685Z,5.30
2019-02-07T07:22:28.190Z,5.27
2019-02-07T07:25:08.298Z,5.42
2019-02-07T07:28:07.465Z,5.50
2019-02-07T07:30:48.515Z,5.54
2019-02-07T07:33:44.773Z,5.59
2019-02-07T07:36:31.701Z,5.66
2019-02-07T07:39:17.715Z,5.74
2019-02-07T07:42:06.500Z,5.77
2019-02-07T07:44:52.013Z,5.82
2019-02-07T07:47:48.015Z,5.82
2019-02-07T07:50:41.035Z,5.83
2019-02-07T07:53:28.010Z,5.85
2019-02-07T07:56:05.305Z,5.84
2019-02-07T07:58:58.280Z,5.90
2019-02-07T08:01:43.906Z,5.94
2019-02-07T08:04:17.230Z,5.91
2019-02-07T08:27:24.725Z,5.80
2019-02-07T08:34:42.342Z,5.79
2019-02-07T08:41:04.050Z,5.64
2019-02-07T08:47:18.591Z,5.59
2019-02-07T08:50:40.775Z,5.63
2019-02-07T08:53:53.434Z,5.70
2019-02-07T09:00:31.065Z,5.63
2019-02-07T17:27:50.458Z,8.07
2019-02-07T22:25:37.722Z,6.33
2019-02-07T22:28:07.063Z,6.39
2019-02-07T22:30:34.756Z,6.39
2019-02-07T22:33:02.258Z,6.39
2019-02-07T22:35:29.836Z,6.36
2019-02-07T22:37:57.367Z,6.33
2019-02-07T22:40:25.122Z,6.36
2019-02-07T22:42:52.686Z,6.33
2019-02-07T22:45:22.688Z,6.39
2019-02-07T22:47:50.305Z,6.40
2019-02-07T22:50:22.732Z,6.43
2019-02-07T22:52:56.763Z,6.44
2019-02-07T22:55:20.124Z,6.45
2019-02-07T22:57:47.832Z,6.44
2019-02-07T23:01:09.411Z,6.45
2019-02-07T23:03:45.240Z,6.44
2019-02-07T23:06:13.031Z,6.46
2019-02-07T23:08:40.752Z,6.48
2019-02-07T23:11:09.192Z,6.46
2019-02-07T23:13:37.052Z,6.50
2019-02-07T23:16:07.604Z,6.48
2019-02-07T23:18:36.090Z,6.55
2019-02-07T23:21:04.352Z,6.54
2019-02-07T23:23:31.912Z,6.52
2019-02-07T23:25:59.634Z,6.59
2019-02-07T23:28:27.092Z,6.55
2019-02-07T23:30:55.212Z,6.53
2019-02-07T23:33:22.773Z,6.50
2019-02-07T23:35:50.552Z,6.50
2019-02-07T23:38:18.572Z,6.45
2019-02-07T23:40:46.228Z,6.38
2019-02-07T23:43:13.914Z,6.34
2019-02-07T23:45:41.554Z,6.30
2019-02-07T23:48:09.152Z,6.25
2019-02-07T23:50:36.952Z,6.23
2019-02-07T23:53:14.069Z,6.13
2019-02-07T23:55:34.532Z,6.13
2019-02-07T23:58:02.486Z,6.08
